Time;durP1;ratioP1;P1;durP2;ratioP2;P2;SDS_P1;SDS_P2;PMS_P1;PMS_P2;Temp;Humidity;BMP_temperature;BMP_pressure;BME280_temperature;BME280_humidity;BME280_pressure;Samples;Min_cycle;Max_cycle;Signal;HPM_P1;HPM_P2
2023/04/08 00:01:14;;;;;;;2.20;1.00;;;;;;;;;;4924785;29;20074;-59
2023/04/08 00:03:42;;;;;;;3.67;2.08;;;;;;;;;;4932182;29;20075;-59
2023/04/08 00:06:10;;;;;;;1.98;1.45;;;;;;;;;;4922559;29;20694;-58
2023/04/08 00:08:39;;;;;;;9.20;2.97;;;;;;;;;;4931744;29;20128;-61
2023/04/08 00:11:07;;;;;;;5.40;1.95;;;;;;;;;;4930804;29;20048;-59
2023/04/08 00:13:37;;;;;;;3.15;1.48;;;;;;;;;;4925857;29;20055;-59
2023/04/08 00:16:06;;;;;;;3.55;2.55;;;;;;;;;;4926669;28;20044;-59
2023/04/08 00:18:36;;;;;;;5.68;1.63;;;;;;;;;;4931884;29;20110;-60
2023/04/08 00:21:05;;;;;;;3.53;2.25;;;;;;;;;;4930632;29;20052;-59
2023/04/08 00:23:33;;;;;;;3.40;2.10;;;;;;;;;;4919270;29;20048;-60
2023/04/08 00:26:02;;;;;;;5.95;1.73;;;;;;;;;;4921643;29;20105;-60
2023/04/08 00:28:31;;;;;;;3.25;1.70;;;;;;;;;;4931565;29;20051;-59
2023/04/08 00:31:01;;;;;;;3.47;1.42;;;;;;;;;;4920644;29;20062;-60
2023/04/08 00:33:29;;;;;;;5.32;1.98;;;;;;;;;;4930960;29;20060;-61
2023/04/08 00:35:58;;;;;;;7.55;3.15;;;;;;;;;;4925930;28;20520;-58
2023/04/08 00:38:26;;;;;;;1.23;1.08;;;;;;;;;;4931917;29;20099;-59
2023/04/08 00:40:54;;;;;;;5.88;1.27;;;;;;;;;;4930663;29;20060;-61
2023/04/08 00:43:23;;;;;;;1.92;1.60;;;;;;;;;;4931447;29;20051;-61
2023/04/08 00:45:51;;;;;;;3.70;1.92;;;;;;;;;;4927670;28;20062;-61
2023/04/08 00:48:21;;;;;;;1.35;1.00;;;;;;;;;;4921692;29;20088;-61
2023/04/08 00:50:49;;;;;;;3.60;2.03;;;;;;;;;;4927782;29;20489;-60
2023/04/08 00:53:19;;;;;;;3.13;1.30;;;;;;;;;;4929116;29;22832;-63
2023/04/08 00:55:47;;;;;;;2.97;1.63;;;;;;;;;;4928713;29;20421;-60
2023/04/08 00:58:16;;;;;;;1.35;1.25;;;;;;;;;;4931752;29;20048;-59
2023/04/08 01:00:52;;;;;;;3.75;1.48;;;;;;;;;;4926346;29;20253;-68
2023/04/08 01:03:27;;;;;;;4.70;1.83;;;;;;;;;;4945058;23;20678;-58
2023/04/08 01:05:58;;;;;;;2.95;1.25;;;;;;;;;;4914676;29;20058;-59
2023/04/08 01:08:28;;;;;;;1.50;1.02;;;;;;;;;;4916230;29;20461;-59
2023/04/08 01:10:59;;;;;;;2.90;1.13;;;;;;;;;;4916426;29;20090;-59
2023/04/08 01:13:28;;;;;;;4.07;1.58;;;;;;;;;;4915888;29;20078;-59
2023/04/08 01:15:57;;;;;;;2.67;1.60;;;;;;;;;;4916245;29;20048;-59
2023/04/08 01:18:27;;;;;;;1.20;1.00;;;;;;;;;;4916971;29;20581;-58
2023/04/08 01:20:56;;;;;;;3.03;1.42;;;;;;;;;;4919841;29;20135;-59
2023/04/08 01:23:30;;;;;;;3.53;1.20;;;;;;;;;;4919286;29;20052;-59
2023/04/08 01:25:59;;;;;;;0.63;0.63;;;;;;;;;;4918938;29;20056;-58
2023/04/08 01:28:30;;;;;;;7.90;1.73;;;;;;;;;;4919090;29;20300;-59
2023/04/08 01:30:59;;;;;;;1.67;0.80;;;;;;;;;;4918980;29;20472;-59
2023/04/08 01:33:28;;;;;;;2.47;1.08;;;;;;;;;;4919185;29;20059;-58
2023/04/08 01:35:57;;;;;;;2.55;1.15;;;;;;;;;;4918190;29;20139;-59
2023/04/08 01:38:26;;;;;;;1.30;0.98;;;;;;;;;;4914792;29;20058;-59
2023/04/08 01:40:55;;;;;;;1.85;1.10;;;;;;;;;;4911404;29;20501;-59
2023/04/08 01:43:25;;;;;;;3.00;1.63;;;;;;;;;;4914057;29;20511;-60
2023/04/08 01:45:56;;;;;;;2.10;1.23;;;;;;;;;;4916221;29;20052;-59
2023/04/08 01:48:25;;;;;;;3.55;1.67;;;;;;;;;;4914148;29;20486;-59
2023/04/08 01:50:55;;;;;;;0.85;0.82;;;;;;;;;;4914201;29;20071;-59
2023/04/08 01:53:23;;;;;;;8.48;1.60;;;;;;;;;;4907330;29;20059;-59
2023/04/08 01:55:56;;;;;;;1.70;1.13;;;;;;;;;;4914135;29;20064;-59
2023/04/08 01:58:27;;;;;;;2.90;1.20;;;;;;;;;;4913582;29;20044;-60
2023/04/08 02:00:57;;;;;;;2.90;0.80;;;;;;;;;;4909958;29;20526;-59
2023/04/08 02:03:26;;;;;;;0.50;0.50;;;;;;;;;;4914323;29;20079;-60
2023/04/08 02:05:55;;;;;;;2.35;1.10;;;;;;;;;;4915031;29;20048;-58
2023/04/08 02:08:23;;;;;;;1.83;1.45;;;;;;;;;;4913310;29;20059;-58
2023/04/08 02:10:52;;;;;;;1.38;0.95;;;;;;;;;;4911101;29;20529;-58
2023/04/08 02:13:20;;;;;;;2.67;1.15;;;;;;;;;;4913175;29;20056;-58
2023/04/08 02:15:53;;;;;;;4.18;1.42;;;;;;;;;;4913648;29;20052;-58
2023/04/08 02:18:25;;;;;;;9.73;1.10;;;;;;;;;;4910445;29;20076;-60
2023/04/08 02:20:57;;;;;;;1.15;0.80;;;;;;;;;;4912853;29;20123;-59
2023/04/08 02:23:28;;;;;;;3.05;1.58;;;;;;;;;;4914007;29;20052;-59
2023/04/08 02:25:57;;;;;;;1.20;0.98;;;;;;;;;;4913917;29;20049;-61
2023/04/08 02:28:27;;;;;;;4.35;0.77;;;;;;;;;;4913520;29;20055;-59
2023/04/08 02:30:59;;;;;;;1.35;1.05;;;;;;;;;;4912677;29;20067;-59
2023/04/08 02:33:28;;;;;;;1.58;0.90;;;;;;;;;;4904288;29;20057;-60
2023/04/08 02:35:57;;;;;;;1.17;1.17;;;;;;;;;;4908949;29;20055;-59
2023/04/08 02:38:28;;;;;;;3.50;1.10;;;;;;;;;;4913359;29;20052;-59
2023/04/08 02:40:57;;;;;;;2.92;0.95;;;;;;;;;;4912512;29;20134;-60
2023/04/08 02:43:30;;;;;;;1.13;0.98;;;;;;;;;;4908175;29;20056;-58
2023/04/08 02:46:02;;;;;;;1.65;1.30;;;;;;;;;;4911984;29;20072;-58
2023/04/08 02:48:30;;;;;;;1.17;0.93;;;;;;;;;;4911183;29;20107;-58
2023/04/08 02:50:59;;;;;;;3.03;1.35;;;;;;;;;;4897561;29;20088;-59
2023/04/08 02:53:27;;;;;;;6.65;1.33;;;;;;;;;;4908405;29;20125;-59
2023/04/08 02:55:56;;;;;;;2.10;1.42;;;;;;;;;;4900250;29;20044;-63
2023/04/08 02:58:24;;;;;;;4.18;1.50;;;;;;;;;;4901738;29;20131;-59
2023/04/08 03:00:52;;;;;;;5.60;2.10;;;;;;;;;;4900555;29;20052;-59
2023/04/08 03:03:26;;;;;;;2.75;1.20;;;;;;;;;;4912882;29;20051;-59
2023/04/08 03:05:55;;;;;;;6.07;1.73;;;;;;;;;;4912453;28;20079;-60
2023/04/08 03:08:23;;;;;;;2.60;1.80;;;;;;;;;;4909336;29;20501;-59
2023/04/08 03:10:51;;;;;;;0.52;0.52;;;;;;;;;;4911436;29;20051;-60
2023/04/08 03:13:20;;;;;;;1.92;1.48;;;;;;;;;;4913160;29;20060;-59
2023/04/08 03:15:48;;;;;;;0.65;0.65;;;;;;;;;;4910243;29;20044;-58
2023/04/08 03:18:16;;;;;;;1.67;1.27;;;;;;;;;;4910967;29;20050;-60
2023/04/08 03:20:46;;;;;;;3.50;1.52;;;;;;;;;;4912480;29;20052;-62
2023/04/08 03:23:15;;;;;;;2.17;1.23;;;;;;;;;;4910519;29;20048;-58
2023/04/08 03:25:43;;;;;;;1.63;1.50;;;;;;;;;;4911873;29;20512;-59
2023/04/08 03:28:11;;;;;;;4.68;1.75;;;;;;;;;;4908688;29;20391;-59
2023/04/08 03:30:40;;;;;;;2.47;1.10;;;;;;;;;;4908400;29;20137;-58
2023/04/08 03:33:08;;;;;;;3.10;2.13;;;;;;;;;;4899730;29;20398;-58
2023/04/08 03:35:37;;;;;;;1.85;1.63;;;;;;;;;;4910362;29;20762;-57
2023/04/08 03:38:07;;;;;;;1.40;1.08;;;;;;;;;;4912594;29;20048;-58
2023/04/08 03:40:35;;;;;;;4.22;1.50;;;;;;;;;;4909965;29;20066;-59
2023/04/08 03:43:04;;;;;;;6.18;2.28;;;;;;;;;;4912742;29;20052;-58
2023/04/08 03:45:32;;;;;;;5.40;2.10;;;;;;;;;;4910179;29;20504;-58
2023/04/08 03:48:01;;;;;;;2.25;1.35;;;;;;;;;;4912797;29;20437;-59
2023/04/08 03:50:29;;;;;;;1.17;1.02;;;;;;;;;;4911352;29;20048;-58
2023/04/08 03:52:57;;;;;;;3.38;1.95;;;;;;;;;;4912944;29;20056;-58
2023/04/08 03:55:27;;;;;;;1.77;1.30;;;;;;;;;;4911540;29;20561;-57
2023/04/08 03:57:55;;;;;;;1.42;1.10;;;;;;;;;;4912250;29;20048;-58
2023/04/08 04:00:24;;;;;;;1.83;1.52;;;;;;;;;;4911614;29;20431;-58
2023/04/08 04:02:54;;;;;;;2.22;2.03;;;;;;;;;;4907923;29;20058;-57
2023/04/08 04:05:22;;;;;;;1.75;1.40;;;;;;;;;;4912069;29;20436;-58
2023/04/08 04:07:51;;;;;;;10.60;1.65;;;;;;;;;;4908680;29;20056;-57
2023/04/08 04:10:19;;;;;;;5.18;2.28;;;;;;;;;;4901126;29;20067;-58
2023/04/08 04:12:50;;;;;;;4.25;1.40;;;;;;;;;;4912387;29;20056;-57
2023/04/08 04:15:18;;;;;;;3.47;1.90;;;;;;;;;;4908935;29;20131;-58
2023/04/08 04:17:49;;;;;;;4.03;2.00;;;;;;;;;;4903739;29;20052;-58
2023/04/08 04:20:17;;;;;;;2.00;1.08;;;;;;;;;;4900001;29;20062;-58
2023/04/08 04:22:45;;;;;;;5.50;1.38;;;;;;;;;;4912341;29;20079;-57
2023/04/08 04:25:14;;;;;;;4.57;1.73;;;;;;;;;;4907131;29;20712;-59
2023/04/08 04:27:42;;;;;;;5.40;2.63;;;;;;;;;;4908046;29;20068;-57
2023/04/08 04:30:14;;;;;;;3.28;2.17;;;;;;;;;;4906980;29;20051;-58
2023/04/08 04:32:42;;;;;;;3.95;1.83;;;;;;;;;;4908274;29;20462;-57
2023/04/08 04:35:11;;;;;;;3.65;1.67;;;;;;;;;;4911922;29;20144;-58
2023/04/08 04:37:40;;;;;;;2.70;1.63;;;;;;;;;;4910334;29;20076;-60
2023/04/08 04:40:09;;;;;;;8.20;2.03;;;;;;;;;;4909131;29;20055;-58
2023/04/08 04:42:37;;;;;;;3.13;1.88;;;;;;;;;;4912326;29;20541;-58
2023/04/08 04:45:06;;;;;;;2.88;1.85;;;;;;;;;;4909498;29;20048;-59
2023/04/08 04:47:35;;;;;;;4.35;1.95;;;;;;;;;;4907316;29;20794;-59
2023/04/08 04:50:04;;;;;;;4.10;1.52;;;;;;;;;;4919365;29;20079;-58
2023/04/08 04:52:32;;;;;;;3.28;1.65;;;;;;;;;;4926570;29;20056;-58
2023/04/08 04:55:01;;;;;;;7.38;2.33;;;;;;;;;;4915294;29;20044;-58
2023/04/08 04:57:29;;;;;;;2.42;1.45;;;;;;;;;;4915950;28;20051;-59
2023/04/08 04:59:57;;;;;;;2.03;1.20;;;;;;;;;;4926217;29;20048;-58
2023/04/08 05:02:25;;;;;;;1.90;1.33;;;;;;;;;;4925282;29;20063;-57
2023/04/08 05:04:56;;;;;;;4.07;1.60;;;;;;;;;;4915684;29;20502;-59
2023/04/08 05:07:24;;;;;;;2.35;1.48;;;;;;;;;;4920047;29;20102;-57
2023/04/08 05:09:52;;;;;;;4.18;2.10;;;;;;;;;;4916737;29;20063;-59
2023/04/08 05:12:21;;;;;;;7.20;3.20;;;;;;;;;;4914379;29;20078;-59
2023/04/08 05:14:49;;;;;;;2.15;1.85;;;;;;;;;;4923322;29;20052;-58
2023/04/08 05:17:17;;;;;;;3.35;1.60;;;;;;;;;;4919146;29;20470;-61
2023/04/08 05:19:46;;;;;;;5.35;2.17;;;;;;;;;;4918116;29;20086;-59
2023/04/08 05:22:16;;;;;;;1.88;1.20;;;;;;;;;;4920303;29;20043;-61
2023/04/08 05:24:44;;;;;;;3.20;2.45;;;;;;;;;;4914444;29;20044;-62
2023/04/08 05:27:12;;;;;;;4.53;2.58;;;;;;;;;;4903903;29;20310;-60
2023/04/08 05:29:41;;;;;;;6.00;3.05;;;;;;;;;;4909443;29;20493;-59
2023/04/08 05:32:10;;;;;;;1.83;1.35;;;;;;;;;;4915219;29;20048;-60
2023/04/08 05:34:38;;;;;;;4.75;1.95;;;;;;;;;;4915415;29;20063;-59
2023/04/08 05:37:06;;;;;;;7.30;2.28;;;;;;;;;;4911009;29;20510;-60
2023/04/08 05:39:36;;;;;;;4.43;1.20;;;;;;;;;;4910387;29;20061;-60
2023/04/08 05:42:04;;;;;;;7.53;2.97;;;;;;;;;;4910547;29;20139;-60
2023/04/08 05:44:33;;;;;;;4.38;2.38;;;;;;;;;;4914028;29;20056;-60
2023/04/08 05:47:01;;;;;;;4.28;2.58;;;;;;;;;;4905674;29;20044;-60
2023/04/08 05:49:30;;;;;;;7.43;2.95;;;;;;;;;;4910718;29;20104;-60
2023/04/08 05:51:58;;;;;;;6.78;2.40;;;;;;;;;;4911379;29;20052;-61
2023/04/08 05:54:26;;;;;;;2.58;1.75;;;;;;;;;;4911284;29;20056;-60
2023/04/08 05:56:56;;;;;;;6.00;2.47;;;;;;;;;;4909469;29;20056;-61
2023/04/08 05:59:24;;;;;;;3.00;1.77;;;;;;;;;;4910977;29;20048;-62
2023/04/08 06:01:54;;;;;;;5.97;4.70;;;;;;;;;;4911596;29;20293;-60
2023/04/08 06:04:22;;;;;;;4.75;2.28;;;;;;;;;;4910860;29;20068;-61
2023/04/08 06:06:51;;;;;;;8.38;3.25;;;;;;;;;;4904446;29;20502;-61
2023/04/08 06:09:19;;;;;;;14.48;2.65;;;;;;;;;;4911303;29;20048;-61
2023/04/08 06:11:49;;;;;;;4.43;1.73;;;;;;;;;;4911034;29;20143;-62
2023/04/08 06:14:19;;;;;;;5.75;2.63;;;;;;;;;;4909917;29;20066;-60
2023/04/08 06:16:47;;;;;;;5.20;1.52;;;;;;;;;;4910104;29;20059;-60
2023/04/08 06:19:16;;;;;;;13.57;3.75;;;;;;;;;;4909986;29;20076;-63
2023/04/08 06:21:44;;;;;;;5.45;2.38;;;;;;;;;;4910549;29;20473;-61
2023/04/08 06:24:13;;;;;;;6.75;2.38;;;;;;;;;;4911307;29;20405;-60
2023/04/08 06:26:41;;;;;;;3.63;1.98;;;;;;;;;;4911076;29;20078;-60
2023/04/08 06:29:09;;;;;;;5.25;3.30;;;;;;;;;;4909435;29;20494;-60
2023/04/08 06:31:39;;;;;;;5.75;2.83;;;;;;;;;;4910368;29;20048;-60
2023/04/08 06:34:07;;;;;;;4.65;2.63;;;;;;;;;;4906895;29;20466;-60
2023/04/08 06:36:36;;;;;;;4.35;2.75;;;;;;;;;;4910609;29;20056;-61
2023/04/08 06:39:04;;;;;;;4.60;2.47;;;;;;;;;;4907271;29;20048;-61
2023/04/08 06:41:33;;;;;;;7.40;2.55;;;;;;;;;;4905507;29;20052;-60
2023/04/08 06:44:01;;;;;;;6.60;2.45;;;;;;;;;;4909958;29;20048;-59
2023/04/08 06:46:29;;;;;;;5.18;2.28;;;;;;;;;;4905823;29;20454;-60
2023/04/08 06:48:59;;;;;;;4.72;2.95;;;;;;;;;;4908865;29;20044;-60
2023/04/08 06:51:27;;;;;;;4.03;2.30;;;;;;;;;;4906891;29;20083;-60
2023/04/08 06:53:56;;;;;;;5.20;2.65;;;;;;;;;;4914259;29;20593;-61
2023/04/08 06:56:25;;;;;;;7.22;3.67;;;;;;;;;;4899148;29;20266;-60
2023/04/08 06:58:53;;;;;;;6.93;2.60;;;;;;;;;;4906627;29;20080;-60
2023/04/08 07:01:21;;;;;;;4.78;2.63;;;;;;;;;;4910522;29;20524;-61
2023/04/08 07:03:50;;;;;;;3.03;2.15;;;;;;;;;;4909806;29;20062;-60
2023/04/08 07:06:20;;;;;;;5.55;2.13;;;;;;;;;;4910150;29;20107;-63
2023/04/08 07:08:48;;;;;;;4.32;2.92;;;;;;;;;;4907100;29;20409;-59
2023/04/08 07:11:17;;;;;;;3.70;2.17;;;;;;;;;;4909926;29;20059;-58
2023/04/08 07:13:45;;;;;;;3.47;2.17;;;;;;;;;;4899066;29;20048;-58
2023/04/08 07:16:13;;;;;;;5.63;2.20;;;;;;;;;;4908484;29;20059;-57
2023/04/08 07:18:42;;;;;;;8.98;3.28;;;;;;;;;;4910114;29;20289;-60
2023/04/08 07:21:11;;;;;;;7.22;3.00;;;;;;;;;;4910110;29;20126;-57
2023/04/08 07:23:41;;;;;;;13.73;4.40;;;;;;;;;;4909256;29;20052;-59
2023/04/08 07:26:09;;;;;;;5.80;2.83;;;;;;;;;;4909362;29;20082;-58
2023/04/08 07:28:37;;;;;;;7.82;2.70;;;;;;;;;;4908805;29;20416;-59
2023/04/08 07:31:13;;;;;;;6.28;2.85;;;;;;;;;;4904744;29;20059;-57
2023/04/08 07:33:41;;;;;;;6.80;2.75;;;;;;;;;;4909206;29;20059;-58
2023/04/08 07:36:10;;;;;;;6.68;3.30;;;;;;;;;;4908948;29;20187;-58
2023/04/08 07:38:40;;;;;;;8.88;3.13;;;;;;;;;;4907403;29;20496;-57
2023/04/08 07:41:09;;;;;;;2.97;2.10;;;;;;;;;;4910037;29;20139;-59
2023/04/08 07:43:37;;;;;;;6.40;2.40;;;;;;;;;;4907582;29;20084;-59
2023/04/08 07:46:06;;;;;;;4.40;2.78;;;;;;;;;;4900298;29;20064;-58
2023/04/08 07:48:35;;;;;;;4.78;2.85;;;;;;;;;;4908064;29;20550;-59
2023/04/08 07:51:05;;;;;;;5.63;2.47;;;;;;;;;;4909898;29;20607;-59
2023/04/08 07:53:37;;;;;;;7.88;2.47;;;;;;;;;;4909035;29;20572;-58
2023/04/08 07:56:12;;;;;;;5.10;2.10;;;;;;;;;;4908526;28;20075;-59
2023/04/08 07:58:41;;;;;;;4.93;2.30;;;;;;;;;;4908604;29;20510;-58
2023/04/08 08:01:17;;;;;;;3.53;1.73;;;;;;;;;;4906896;29;20525;-60
2023/04/08 08:03:46;;;;;;;6.00;2.45;;;;;;;;;;4908626;29;20064;-59
2023/04/08 08:06:15;;;;;;;3.95;2.25;;;;;;;;;;4906362;29;20055;-57
2023/04/08 08:08:44;;;;;;;7.38;3.00;;;;;;;;;;4911922;29;20138;-57
2023/04/08 08:11:14;;;;;;;8.00;2.75;;;;;;;;;;4904822;29;20075;-58
2023/04/08 08:13:42;;;;;;;3.20;2.22;;;;;;;;;;4910598;29;20052;-57
2023/04/08 08:16:11;;;;;;;6.13;2.95;;;;;;;;;;4911471;29;20135;-58
2023/04/08 08:18:40;;;;;;;6.00;2.35;;;;;;;;;;4912196;29;20103;-59
2023/04/08 08:21:08;;;;;;;7.68;3.20;;;;;;;;;;4912378;29;20051;-58
2023/04/08 08:23:37;;;;;;;9.57;3.20;;;;;;;;;;4912159;29;20067;-59
2023/04/08 08:26:08;;;;;;;5.15;2.80;;;;;;;;;;4911410;29;20063;-58
2023/04/08 08:28:38;;;;;;;6.10;3.38;;;;;;;;;;4910738;29;20403;-58
2023/04/08 08:31:07;;;;;;;2.33;1.98;;;;;;;;;;4911830;29;20143;-59
2023/04/08 08:33:35;;;;;;;5.25;1.95;;;;;;;;;;4912035;29;20064;-62
2023/04/08 08:36:05;;;;;;;8.35;3.03;;;;;;;;;;4912019;29;20123;-57
2023/04/08 08:38:33;;;;;;;6.25;2.72;;;;;;;;;;4912488;29;20135;-58
2023/04/08 08:41:02;;;;;;;4.53;2.63;;;;;;;;;;4912639;29;20532;-57
2023/04/08 08:43:32;;;;;;;5.95;2.00;;;;;;;;;;4911780;29;20045;-58
2023/04/08 08:46:02;;;;;;;5.03;2.85;;;;;;;;;;4911743;28;20501;-58
2023/04/08 08:48:32;;;;;;;5.68;1.98;;;;;;;;;;4911831;29;20063;-58
2023/04/08 08:51:01;;;;;;;6.05;3.08;;;;;;;;;;4911777;29;20490;-58
2023/04/08 08:53:30;;;;;;;3.70;1.92;;;;;;;;;;4912090;29;20496;-60
2023/04/08 08:56:03;;;;;;;3.80;2.72;;;;;;;;;;4904710;29;20084;-57
2023/04/08 08:58:34;;;;;;;5.75;2.20;;;;;;;;;;4909373;29;20520;-58
2023/04/08 09:01:04;;;;;;;6.00;2.33;;;;;;;;;;4908942;29;20048;-60
2023/04/08 09:03:32;;;;;;;4.57;2.05;;;;;;;;;;4909676;29;20520;-60
2023/04/08 09:06:02;;;;;;;3.00;1.88;;;;;;;;;;4910922;29;20058;-59
2023/04/08 09:08:31;;;;;;;10.07;3.35;;;;;;;;;;4912039;29;20139;-61
2023/04/08 09:11:12;;;;;;;4.35;2.65;;;;;;;;;;4911626;29;20127;-61
2023/04/08 09:13:40;;;;;;;8.10;1.80;;;;;;;;;;4908985;29;20156;-60
2023/04/08 09:16:11;;;;;;;5.70;2.75;;;;;;;;;;4911135;29;20143;-61
2023/04/08 09:18:39;;;;;;;2.17;1.58;;;;;;;;;;4912041;29;20055;-61
2023/04/08 09:21:08;;;;;;;5.40;2.78;;;;;;;;;;4910983;29;20048;-60
2023/04/08 09:23:40;;;;;;;4.60;2.22;;;;;;;;;;4911775;29;20440;-61
2023/04/08 09:26:09;;;;;;;5.20;2.67;;;;;;;;;;4910800;29;20052;-60
2023/04/08 09:28:37;;;;;;;7.03;2.88;;;;;;;;;;4910326;29;20099;-60
2023/04/08 09:31:18;;;;;;;2.70;1.98;;;;;;;;;;4911020;29;20055;-60
2023/04/08 09:33:47;;;;;;;6.57;2.78;;;;;;;;;;4912058;29;20111;-62
2023/04/08 09:36:16;;;;;;;3.80;2.13;;;;;;;;;;4910107;29;20040;-60
2023/04/08 09:38:44;;;;;;;4.65;2.13;;;;;;;;;;4911895;29;20052;-61
2023/04/08 09:41:14;;;;;;;5.43;2.30;;;;;;;;;;4911340;29;20140;-58
2023/04/08 09:43:48;;;;;;;5.63;1.70;;;;;;;;;;4912530;29;20450;-58
2023/04/08 09:46:19;;;;;;;4.47;1.77;;;;;;;;;;4901504;29;20075;-58
2023/04/08 09:48:51;;;;;;;3.58;2.10;;;;;;;;;;4914190;29;20447;-58
2023/04/08 09:51:20;;;;;;;7.10;2.63;;;;;;;;;;4906924;29;20056;-58
2023/04/08 09:53:49;;;;;;;3.88;1.90;;;;;;;;;;4911695;29;20052;-59
2023/04/08 09:56:18;;;;;;;4.78;3.10;;;;;;;;;;4914147;29;20064;-59
2023/04/08 09:58:49;;;;;;;4.43;2.40;;;;;;;;;;4913612;29;20063;-59
2023/04/08 10:01:22;;;;;;;7.75;2.95;;;;;;;;;;4913834;29;20832;-60
2023/04/08 10:03:55;;;;;;;4.68;2.30;;;;;;;;;;4914076;29;20052;-59
2023/04/08 10:06:28;;;;;;;7.65;2.83;;;;;;;;;;4913824;29;20168;-58
2023/04/08 10:08:57;;;;;;;10.00;3.33;;;;;;;;;;4912527;29;20062;-59
2023/04/08 10:11:25;;;;;;;3.67;2.65;;;;;;;;;;4913658;29;20052;-58
2023/04/08 10:13:54;;;;;;;2.85;1.55;;;;;;;;;;4913736;29;20490;-58
2023/04/08 10:16:25;;;;;;;6.07;3.60;;;;;;;;;;4913163;29;20134;-58
2023/04/08 10:18:55;;;;;;;5.38;2.33;;;;;;;;;;4911989;29;20434;-57
2023/04/08 10:21:37;;;;;;;7.45;2.92;;;;;;;;;;4914066;29;20107;-57
2023/04/08 10:24:08;;;;;;;5.68;2.70;;;;;;;;;;4914507;29;20071;-58
2023/04/08 10:26:38;;;;;;;7.35;2.65;;;;;;;;;;4913284;29;20348;-57
2023/04/08 10:29:25;;;;;;;8.77;3.40;;;;;;;;;;4913012;29;20477;-61
2023/04/08 10:31:56;;;;;;;6.75;3.05;;;;;;;;;;4902419;29;20052;-58
2023/04/08 10:34:26;;;;;;;5.80;2.72;;;;;;;;;;4912860;29;20099;-57
2023/04/08 10:36:55;;;;;;;5.63;3.75;;;;;;;;;;4913378;29;20068;-60
2023/04/08 10:39:26;;;;;;;5.22;1.98;;;;;;;;;;4913898;29;20415;-58
2023/04/08 10:41:54;;;;;;;13.25;2.95;;;;;;;;;;4904052;29;20056;-58
2023/04/08 10:44:23;;;;;;;4.75;2.28;;;;;;;;;;4912682;29;20054;-58
2023/04/08 10:46:52;;;;;;;8.00;3.20;;;;;;;;;;4904247;29;20400;-58
2023/04/08 10:49:22;;;;;;;5.07;2.80;;;;;;;;;;4908730;29;20459;-57
2023/04/08 10:51:51;;;;;;;7.15;3.05;;;;;;;;;;4895221;29;20075;-58
2023/04/08 10:54:19;;;;;;;6.10;2.78;;;;;;;;;;4913515;29;20060;-60
2023/04/08 10:56:48;;;;;;;5.35;2.42;;;;;;;;;;4913399;29;20056;-60
2023/04/08 10:59:19;;;;;;;7.18;3.05;;;;;;;;;;4910669;29;20135;-58
2023/04/08 11:01:47;;;;;;;4.85;2.92;;;;;;;;;;4903906;29;20389;-58
2023/04/08 11:04:17;;;;;;;9.10;3.65;;;;;;;;;;4913825;29;20106;-60
2023/04/08 11:06:47;;;;;;;4.70;2.45;;;;;;;;;;4911650;29;20052;-61
2023/04/08 11:09:16;;;;;;;4.45;3.17;;;;;;;;;;4913254;29;20052;-59
2023/04/08 11:11:45;;;;;;;5.82;3.38;;;;;;;;;;4911515;29;20056;-59
2023/04/08 11:14:14;;;;;;;7.63;3.50;;;;;;;;;;4911782;29;20056;-60
2023/04/08 11:16:43;;;;;;;6.65;2.55;;;;;;;;;;4912227;29;20062;-57
2023/04/08 11:19:14;;;;;;;6.93;2.58;;;;;;;;;;4910872;29;20047;-59
2023/04/08 11:21:42;;;;;;;6.15;2.80;;;;;;;;;;4900770;29;20040;-58
2023/04/08 11:24:15;;;;;;;5.00;2.95;;;;;;;;;;4912218;29;20052;-58
2023/04/08 11:26:43;;;;;;;5.28;2.60;;;;;;;;;;4913088;29;20063;-58
2023/04/08 11:29:15;;;;;;;7.00;2.17;;;;;;;;;;4911960;29;20458;-57
2023/04/08 11:31:46;;;;;;;4.07;2.28;;;;;;;;;;4913186;29;20493;-60
2023/04/08 11:34:22;;;;;;;9.30;2.83;;;;;;;;;;4912240;29;20090;-59
2023/04/08 11:36:50;;;;;;;6.80;3.20;;;;;;;;;;4905966;28;20075;-59
2023/04/08 11:39:23;;;;;;;6.32;2.85;;;;;;;;;;4912867;29;20127;-58
2023/04/08 11:41:52;;;;;;;9.88;3.40;;;;;;;;;;4912781;29;20056;-57
2023/04/08 11:44:20;;;;;;;4.07;2.05;;;;;;;;;;4911830;29;20048;-58
2023/04/08 11:46:56;;;;;;;3.83;1.38;;;;;;;;;;4911417;29;20060;-59
2023/04/08 11:49:24;;;;;;;5.00;2.63;;;;;;;;;;4912129;29;20050;-64
2023/04/08 11:51:56;;;;;;;4.60;2.90;;;;;;;;;;4912906;29;20067;-58
2023/04/08 11:54:29;;;;;;;5.13;2.10;;;;;;;;;;4907167;29;20058;-58
2023/04/08 11:56:58;;;;;;;3.15;2.25;;;;;;;;;;4911647;29;20056;-58
2023/04/08 11:59:26;;;;;;;5.68;1.80;;;;;;;;;;4911725;29;20089;-58
2023/04/08 12:01:57;;;;;;;5.20;3.30;;;;;;;;;;4899189;29;20078;-58
2023/04/08 12:04:26;;;;;;;7.03;2.22;;;;;;;;;;4912736;29;20056;-57
2023/04/08 12:06:54;;;;;;;3.08;1.77;;;;;;;;;;4911552;29;20052;-58
2023/04/08 12:09:26;;;;;;;4.35;2.85;;;;;;;;;;4904167;29;20056;-58
2023/04/08 12:11:56;;;;;;;4.90;2.35;;;;;;;;;;4896048;29;20108;-58
2023/04/08 12:14:25;;;;;;;5.47;3.53;;;;;;;;;;4904172;29;20104;-58
2023/04/08 12:16:56;;;;;;;5.05;2.30;;;;;;;;;;4908897;29;20163;-58
2023/04/08 12:19:24;;;;;;;4.85;2.13;;;;;;;;;;4909265;29;20054;-57
2023/04/08 12:21:52;;;;;;;5.97;3.35;;;;;;;;;;4908103;29;20044;-61
2023/04/08 12:24:21;;;;;;;5.72;2.47;;;;;;;;;;4906953;29;20445;-59
2023/04/08 12:26:49;;;;;;;9.18;4.10;;;;;;;;;;4905433;29;20288;-57
2023/04/08 12:29:19;;;;;;;3.78;1.95;;;;;;;;;;4906231;29;20510;-57
2023/04/08 12:31:47;;;;;;;5.35;3.35;;;;;;;;;;4905393;29;20048;-57
2023/04/08 12:34:16;;;;;;;11.52;4.75;;;;;;;;;;4902603;29;20467;-58
2023/04/08 12:36:45;;;;;;;4.13;2.33;;;;;;;;;;4904637;29;20470;-59
2023/04/08 12:39:13;;;;;;;6.78;3.13;;;;;;;;;;4908346;29;20493;-58
2023/04/08 12:41:41;;;;;;;8.82;3.38;;;;;;;;;;4902943;29;20479;-59
2023/04/08 12:44:10;;;;;;;7.25;3.33;;;;;;;;;;4899734;29;20530;-58
2023/04/08 12:46:39;;;;;;;6.38;2.85;;;;;;;;;;4905556;28;20135;-58
2023/04/08 12:49:08;;;;;;;5.50;2.90;;;;;;;;;;4906078;29;20135;-58
2023/04/08 12:51:37;;;;;;;2.70;1.85;;;;;;;;;;4904856;29;20603;-64
2023/04/08 12:54:05;;;;;;;5.97;2.22;;;;;;;;;;4906152;29;20131;-60
2023/04/08 12:56:33;;;;;;;4.45;2.80;;;;;;;;;;4902134;29;20516;-57
2023/04/08 12:59:02;;;;;;;7.03;2.10;;;;;;;;;;4896074;29;20139;-59
2023/04/08 13:01:30;;;;;;;3.30;1.50;;;;;;;;;;4897190;29;20135;-59
2023/04/08 13:04:00;;;;;;;4.38;2.20;;;;;;;;;;4904264;29;20060;-58
2023/04/08 13:06:29;;;;;;;5.38;1.65;;;;;;;;;;4901985;29;20604;-59
2023/04/08 13:08:57;;;;;;;2.88;1.75;;;;;;;;;;4907254;29;20044;-57
2023/04/08 13:11:25;;;;;;;4.07;2.00;;;;;;;;;;4905634;29;20142;-57
2023/04/08 13:13:54;;;;;;;7.72;2.05;;;;;;;;;;4903496;29;20043;-58
2023/04/08 13:16:22;;;;;;;5.68;2.95;;;;;;;;;;4911464;29;20066;-59
2023/04/08 13:18:51;;;;;;;2.88;1.48;;;;;;;;;;4911850;29;20059;-60
2023/04/08 13:21:21;;;;;;;2.83;1.50;;;;;;;;;;4911887;29;20119;-57
2023/04/08 13:23:49;;;;;;;2.67;1.70;;;;;;;;;;4910222;29;20449;-60
2023/04/08 13:26:18;;;;;;;2.70;1.52;;;;;;;;;;4909182;29;20060;-59
2023/04/08 13:28:46;;;;;;;4.53;1.27;;;;;;;;;;4909823;29;20048;-57
2023/04/08 13:31:25;;;;;;;3.75;2.10;;;;;;;;;;4912879;29;20139;-58
2023/04/08 13:33:53;;;;;;;2.22;1.15;;;;;;;;;;4911273;29;20199;-61
2023/04/08 13:36:27;;;;;;;4.68;1.83;;;;;;;;;;4909287;29;20202;-59
2023/04/08 13:38:56;;;;;;;4.32;1.80;;;;;;;;;;4910873;29;20095;-61
2023/04/08 13:41:26;;;;;;;2.80;1.58;;;;;;;;;;4903866;29;20052;-61
2023/04/08 13:43:55;;;;;;;2.10;1.83;;;;;;;;;;4909905;29;20052;-65
2023/04/08 13:46:23;;;;;;;3.25;1.92;;;;;;;;;;4910196;29;20525;-60
2023/04/08 13:48:52;;;;;;;3.50;1.70;;;;;;;;;;4910256;29;20059;-61
2023/04/08 13:51:21;;;;;;;2.67;2.17;;;;;;;;;;4910595;29;20119;-60
2023/04/08 13:53:51;;;;;;;1.35;1.25;;;;;;;;;;4903227;29;20056;-61
2023/04/08 13:56:19;;;;;;;3.92;2.20;;;;;;;;;;4910101;29;20051;-60
2023/04/08 13:58:48;;;;;;;7.53;2.38;;;;;;;;;;4908354;29;20090;-60
2023/04/08 14:01:23;;;;;;;6.82;2.47;;;;;;;;;;4918308;29;20055;-60
2023/04/08 14:03:52;;;;;;;5.40;2.10;;;;;;;;;;4910121;29;20103;-61
2023/04/08 14:06:20;;;;;;;2.88;1.67;;;;;;;;;;4915147;29;20087;-60
2023/04/08 14:08:50;;;;;;;5.35;2.22;;;;;;;;;;4915884;29;20060;-61
2023/04/08 14:11:20;;;;;;;4.72;1.50;;;;;;;;;;4909019;29;20064;-62
2023/04/08 14:13:48;;;;;;;6.32;2.08;;;;;;;;;;4910724;29;20052;-64
2023/04/08 14:16:16;;;;;;;3.70;1.80;;;;;;;;;;4909825;29;20138;-58
2023/04/08 14:18:45;;;;;;;4.60;2.35;;;;;;;;;;4910545;29;20075;-59
2023/04/08 14:21:14;;;;;;;3.28;1.73;;;;;;;;;;4910889;29;20171;-59
2023/04/08 14:23:42;;;;;;;8.93;2.15;;;;;;;;;;4910749;29;20162;-59
2023/04/08 14:26:12;;;;;;;4.63;1.92;;;;;;;;;;4908420;29;20545;-58
2023/04/08 14:28:41;;;;;;;2.25;1.58;;;;;;;;;;4909753;29;20063;-58
2023/04/08 14:31:09;;;;;;;6.32;1.75;;;;;;;;;;4909371;29;20048;-57
2023/04/08 14:33:38;;;;;;;4.13;2.08;;;;;;;;;;4910766;29;20350;-57
2023/04/08 14:36:06;;;;;;;4.55;2.38;;;;;;;;;;4909593;29;20052;-59
2023/04/08 14:38:35;;;;;;;4.25;1.85;;;;;;;;;;4905862;29;20425;-60
2023/04/08 14:41:03;;;;;;;2.55;1.35;;;;;;;;;;4907996;29;20404;-58
2023/04/08 14:43:33;;;;;;;3.50;1.48;;;;;;;;;;4910596;29;20082;-57
2023/04/08 14:46:01;;;;;;;2.40;1.75;;;;;;;;;;4909013;29;20508;-58
2023/04/08 14:48:30;;;;;;;3.75;1.73;;;;;;;;;;4909977;29;20541;-58
2023/04/08 14:50:58;;;;;;;2.92;1.92;;;;;;;;;;4907217;29;20482;-58
2023/04/08 14:53:27;;;;;;;5.97;1.92;;;;;;;;;;4909814;29;20077;-58
2023/04/08 14:55:55;;;;;;;3.58;2.15;;;;;;;;;;4908754;29;20052;-59